Time;durP1;ratioP1;P1;durP2;ratioP2;P2;SDS_P1;SDS_P2;PMS_P1;PMS_P2;Temp;Humidity;BMP_temperature;BMP_pressure;BME280_temperature;BME280_humidity;BME280_pressure;Samples;Min_cycle;Max_cycle;Signal;HPM_P1;HPM_P2
2022/08/19 00:00:05;;;;;;;368.27;206.40;;;;;;;;;;5010849;28;20523;-49
2022/08/19 00:02:31;;;;;;;367.27;208.35;;;;;;;;;;5010390;28;20342;-49
2022/08/19 00:04:57;;;;;;;381.38;223.38;;;;;;;;;;5010247;28;20312;-50
2022/08/19 00:07:22;;;;;;;357.90;209.65;;;;;;;;;;5010314;28;20313;-50
2022/08/19 00:09:48;;;;;;;364.67;211.35;;;;;;;;;;5009800;28;20295;-50
2022/08/19 00:12:15;;;;;;;363.85;211.73;;;;;;;;;;5010785;28;20189;-49
2022/08/19 00:14:41;;;;;;;387.83;225.57;;;;;;;;;;5009895;28;20592;-50
2022/08/19 00:17:08;;;;;;;372.42;226.77;;;;;;;;;;5016374;28;20330;-49
2022/08/19 00:19:34;;;;;;;375.45;213.25;;;;;;;;;;4993326;28;20586;-50
2022/08/19 00:22:02;;;;;;;364.80;208.30;;;;;;;;;;5010036;28;20531;-49
2022/08/19 00:24:28;;;;;;;377.85;214.93;;;;;;;;;;5009997;28;20231;-50
2022/08/19 00:26:56;;;;;;;382.83;217.52;;;;;;;;;;5001258;28;20191;-50
2022/08/19 00:29:22;;;;;;;372.20;214.77;;;;;;;;;;5009970;28;20653;-49
2022/08/19 00:31:49;;;;;;;368.52;217.98;;;;;;;;;;5012758;28;20243;-50
2022/08/19 00:34:15;;;;;;;382.67;218.40;;;;;;;;;;5014312;28;20243;-49
2022/08/19 00:36:42;;;;;;;387.10;218.57;;;;;;;;;;5008043;28;20216;-49
2022/08/19 00:39:09;;;;;;;393.73;222.63;;;;;;;;;;5010121;28;20694;-50
2022/08/19 00:41:35;;;;;;;353.38;210.77;;;;;;;;;;5009865;28;20213;-49
2022/08/19 00:44:00;;;;;;;355.08;206.60;;;;;;;;;;5009979;28;20668;-49
2022/08/19 00:46:27;;;;;;;381.00;218.25;;;;;;;;;;5009301;28;20236;-49
2022/08/19 00:48:53;;;;;;;379.48;219.63;;;;;;;;;;5003683;28;20221;-50
2022/08/19 00:51:19;;;;;;;365.45;208.88;;;;;;;;;;4989990;28;20185;-50
2022/08/19 00:53:45;;;;;;;370.85;221.63;;;;;;;;;;4990855;28;20201;-49
2022/08/19 00:56:11;;;;;;;380.25;230.73;;;;;;;;;;4994545;28;20707;-49
2022/08/19 00:58:37;;;;;;;365.25;212.50;;;;;;;;;;5009154;28;20222;-49
2022/08/19 01:01:04;;;;;;;372.08;220.93;;;;;;;;;;5008882;28;20582;-49
2022/08/19 01:03:30;;;;;;;382.67;217.68;;;;;;;;;;5007164;28;20220;-50
2022/08/19 01:05:56;;;;;;;378.38;213.23;;;;;;;;;;5002048;28;20645;-50
2022/08/19 01:08:22;;;;;;;377.55;213.00;;;;;;;;;;5009406;28;20291;-49
2022/08/19 01:10:50;;;;;;;383.20;220.35;;;;;;;;;;5008619;28;20205;-50
2022/08/19 01:13:17;;;;;;;376.15;216.20;;;;;;;;;;5004117;28;20221;-49
2022/08/19 01:15:49;;;;;;;366.50;209.68;;;;;;;;;;4999908;28;20497;-49
2022/08/19 01:18:17;;;;;;;382.67;216.93;;;;;;;;;;5009487;28;20216;-49
2022/08/19 01:20:43;;;;;;;376.00;217.90;;;;;;;;;;5009468;28;20220;-50
2022/08/19 01:23:10;;;;;;;356.75;205.80;;;;;;;;;;5008659;28;20230;-50
2022/08/19 01:25:40;;;;;;;360.45;213.02;;;;;;;;;;5009072;28;20245;-49
2022/08/19 01:28:06;;;;;;;379.20;221.93;;;;;;;;;;5008923;28;20615;-49
2022/08/19 01:30:34;;;;;;;370.35;217.23;;;;;;;;;;5005580;28;20173;-49
2022/08/19 01:33:00;;;;;;;371.45;229.50;;;;;;;;;;4993056;28;20200;-50
2022/08/19 01:35:28;;;;;;;383.10;226.30;;;;;;;;;;4997158;28;20233;-49
2022/08/19 01:37:55;;;;;;;393.48;230.65;;;;;;;;;;4990621;28;20301;-50
2022/08/19 01:40:22;;;;;;;380.05;223.02;;;;;;;;;;5005028;28;20304;-49
2022/08/19 01:42:49;;;;;;;376.08;214.55;;;;;;;;;;5008894;28;20573;-49
2022/08/19 01:45:15;;;;;;;394.08;226.10;;;;;;;;;;5009156;28;20173;-49
2022/08/19 01:47:41;;;;;;;374.95;215.32;;;;;;;;;;5008539;28;20290;-50
2022/08/19 01:50:08;;;;;;;378.67;220.15;;;;;;;;;;5008314;28;20262;-49
2022/08/19 01:52:41;;;;;;;372.75;214.82;;;;;;;;;;5008428;28;20278;-50
2022/08/19 01:55:08;;;;;;;387.30;219.55;;;;;;;;;;4992280;28;20677;-50
2022/08/19 01:57:34;;;;;;;343.27;202.75;;;;;;;;;;5001775;28;20185;-50
2022/08/19 02:00:03;;;;;;;382.70;213.55;;;;;;;;;;5002352;28;20169;-49
2022/08/19 02:02:29;;;;;;;361.75;209.43;;;;;;;;;;5008599;28;20307;-49
2022/08/19 02:04:55;;;;;;;374.13;213.82;;;;;;;;;;5008201;28;20303;-50
2022/08/19 02:07:21;;;;;;;377.20;216.15;;;;;;;;;;4996630;28;20300;-50
2022/08/19 02:09:47;;;;;;;351.98;205.68;;;;;;;;;;4988906;28;20626;-49
2022/08/19 02:12:14;;;;;;;386.85;224.40;;;;;;;;;;4989916;28;20268;-49
2022/08/19 02:14:40;;;;;;;376.73;220.95;;;;;;;;;;5010882;28;20221;-49
2022/08/19 02:17:06;;;;;;;371.95;219.38;;;;;;;;;;5007577;28;20561;-49
2022/08/19 02:19:32;;;;;;;384.20;228.10;;;;;;;;;;5012195;28;20309;-50
2022/08/19 02:21:59;;;;;;;377.15;223.57;;;;;;;;;;5006220;28;20216;-50
2022/08/19 02:24:25;;;;;;;383.45;238.07;;;;;;;;;;5024962;23;20502;-48
2022/08/19 02:26:51;;;;;;;370.58;231.85;;;;;;;;;;4995222;28;20228;-49
2022/08/19 02:29:17;;;;;;;372.63;235.43;;;;;;;;;;5002413;28;20396;-48
2022/08/19 02:31:43;;;;;;;384.80;248.05;;;;;;;;;;5003742;28;20227;-48
2022/08/19 02:34:09;;;;;;;372.67;236.27;;;;;;;;;;5007470;28;20291;-49
2022/08/19 02:36:35;;;;;;;376.30;230.70;;;;;;;;;;4999694;28;20213;-48
2022/08/19 02:39:01;;;;;;;390.17;236.98;;;;;;;;;;4998487;28;20244;-48
2022/08/19 02:41:28;;;;;;;395.63;237.73;;;;;;;;;;4999494;28;20565;-48
2022/08/19 02:43:58;;;;;;;379.90;233.20;;;;;;;;;;5002509;28;20225;-47
2022/08/19 02:46:28;;;;;;;396.20;240.57;;;;;;;;;;5008871;28;20655;-48
2022/08/19 02:48:55;;;;;;;367.13;235.45;;;;;;;;;;4999979;28;20220;-49
2022/08/19 02:51:23;;;;;;;383.85;233.68;;;;;;;;;;5006479;28;20193;-49
2022/08/19 02:53:49;;;;;;;395.70;246.68;;;;;;;;;;5007448;28;20262;-48
2022/08/19 02:56:15;;;;;;;400.25;248.18;;;;;;;;;;5006322;28;20588;-49
2022/08/19 02:58:42;;;;;;;386.88;238.38;;;;;;;;;;5006491;28;20242;-48
2022/08/19 03:01:08;;;;;;;374.83;240.30;;;;;;;;;;5007061;28;20360;-48
2022/08/19 03:03:34;;;;;;;388.23;243.70;;;;;;;;;;4996441;28;20574;-48
2022/08/19 03:06:07;;;;;;;399.30;246.23;;;;;;;;;;5006174;28;20252;-48
2022/08/19 03:08:33;;;;;;;376.95;234.35;;;;;;;;;;5004967;28;20455;-48
2022/08/19 03:10:59;;;;;;;379.17;235.50;;;;;;;;;;4997363;28;20278;-47
2022/08/19 03:13:25;;;;;;;386.15;240.32;;;;;;;;;;5001541;28;20251;-48
2022/08/19 03:15:51;;;;;;;398.67;246.07;;;;;;;;;;4999351;28;20208;-48
2022/08/19 03:18:17;;;;;;;391.80;249.55;;;;;;;;;;5004904;28;20668;-48
2022/08/19 03:20:44;;;;;;;394.27;249.20;;;;;;;;;;5005792;28;20236;-48
2022/08/19 03:23:12;;;;;;;374.67;234.02;;;;;;;;;;4997900;28;20320;-48
2022/08/19 03:25:40;;;;;;;394.13;245.30;;;;;;;;;;5003008;28;20224;-49
2022/08/19 03:28:07;;;;;;;367.85;234.35;;;;;;;;;;4999886;28;20236;-49
2022/08/19 03:30:33;;;;;;;393.08;247.02;;;;;;;;;;5005716;28;20640;-48
2022/08/19 03:32:58;;;;;;;393.58;248.55;;;;;;;;;;4991583;28;20649;-48
2022/08/19 03:35:24;;;;;;;366.38;228.82;;;;;;;;;;5006173;28;20292;-49
2022/08/19 03:37:50;;;;;;;396.58;244.48;;;;;;;;;;5001014;28;20209;-49
2022/08/19 03:40:18;;;;;;;381.95;236.05;;;;;;;;;;5003424;28;20310;-48
2022/08/19 03:42:45;;;;;;;391.75;236.30;;;;;;;;;;4998621;28;20214;-49
2022/08/19 03:45:11;;;;;;;387.17;240.00;;;;;;;;;;5002754;28;20680;-48
2022/08/19 03:47:37;;;;;;;396.40;247.23;;;;;;;;;;4995030;28;20217;-48
2022/08/19 03:50:04;;;;;;;385.02;238.88;;;;;;;;;;5005982;28;20436;-49
2022/08/19 03:52:30;;;;;;;380.83;236.52;;;;;;;;;;4997429;28;20217;-48
2022/08/19 03:54:56;;;;;;;389.10;243.15;;;;;;;;;;4998687;28;20627;-49
2022/08/19 03:57:22;;;;;;;371.75;231.75;;;;;;;;;;5004459;28;20559;-47
2022/08/19 03:59:48;;;;;;;383.73;240.98;;;;;;;;;;5005038;28;20176;-49
2022/08/19 04:02:14;;;;;;;384.08;239.73;;;;;;;;;;5005536;28;20217;-48
2022/08/19 04:04:42;;;;;;;384.45;228.23;;;;;;;;;;5004593;28;20221;-49
2022/08/19 04:07:09;;;;;;;375.75;218.05;;;;;;;;;;5008074;28;20220;-49
2022/08/19 04:09:38;;;;;;;389.77;232.88;;;;;;;;;;5004502;28;20197;-48
2022/08/19 04:12:05;;;;;;;377.00;220.07;;;;;;;;;;5006037;28;20211;-48
2022/08/19 04:14:31;;;;;;;377.05;223.30;;;;;;;;;;5004047;28;20304;-48
2022/08/19 04:17:01;;;;;;;351.05;206.75;;;;;;;;;;5002074;28;20677;-48
2022/08/19 04:19:29;;;;;;;341.38;205.13;;;;;;;;;;5004110;28;20695;-49
2022/08/19 04:21:55;;;;;;;349.20;201.90;;;;;;;;;;5002267;28;20209;-48
2022/08/19 04:24:22;;;;;;;370.63;223.48;;;;;;;;;;5004849;28;20212;-48
2022/08/19 04:26:48;;;;;;;373.85;222.00;;;;;;;;;;5007648;28;20204;-49
2022/08/19 04:29:16;;;;;;;356.05;217.05;;;;;;;;;;5006958;28;20217;-48
2022/08/19 04:31:44;;;;;;;372.88;224.35;;;;;;;;;;5004501;28;20217;-48
2022/08/19 04:34:10;;;;;;;355.90;222.05;;;;;;;;;;5005737;28;20228;-48
2022/08/19 04:36:37;;;;;;;379.45;235.68;;;;;;;;;;5000001;28;20228;-48
2022/08/19 04:39:08;;;;;;;381.13;236.85;;;;;;;;;;4997492;28;20182;-49
2022/08/19 04:44:20;;;;;;;370.90;226.50;;;;;;;;;;5006329;28;20275;-48
2022/08/19 04:46:47;;;;;;;355.73;219.55;;;;;;;;;;5006300;28;20221;-48
2022/08/19 04:49:14;;;;;;;367.48;217.43;;;;;;;;;;5004842;28;20327;-48
2022/08/19 04:51:42;;;;;;;387.33;224.02;;;;;;;;;;5000728;28;20278;-48
2022/08/19 04:54:08;;;;;;;380.77;227.95;;;;;;;;;;5000513;28;20204;-49
2022/08/19 04:56:34;;;;;;;379.15;232.77;;;;;;;;;;5004496;28;20587;-49
2022/08/19 04:59:04;;;;;;;369.10;226.95;;;;;;;;;;5002625;28;20646;-48
2022/08/19 05:01:32;;;;;;;378.80;232.82;;;;;;;;;;4999668;28;20656;-48
2022/08/19 05:03:58;;;;;;;381.40;226.38;;;;;;;;;;5002324;28;20688;-48
2022/08/19 05:06:25;;;;;;;377.08;225.27;;;;;;;;;;4993237;28;20181;-48
2022/08/19 05:08:51;;;;;;;389.40;230.35;;;;;;;;;;5004818;28;20200;-49
2022/08/19 05:11:19;;;;;;;376.75;219.45;;;;;;;;;;4990837;28;20674;-48
2022/08/19 05:13:45;;;;;;;380.98;222.23;;;;;;;;;;4994820;28;20255;-50
2022/08/19 05:16:12;;;;;;;364.52;218.88;;;;;;;;;;5005772;28;20201;-49
2022/08/19 05:24:08;;;;;;;352.48;210.07;;;;;;;;;;5007951;28;20303;-49
2022/08/19 05:26:35;;;;;;;366.38;217.82;;;;;;;;;;5007808;28;20217;-50
2022/08/19 05:29:01;;;;;;;361.00;218.82;;;;;;;;;;5006744;28;20232;-49
2022/08/19 05:31:26;;;;;;;338.67;203.82;;;;;;;;;;5007276;28;20217;-50
2022/08/19 05:33:52;;;;;;;366.15;220.48;;;;;;;;;;5008070;28;20239;-50
2022/08/19 05:36:19;;;;;;;358.60;209.80;;;;;;;;;;5008547;28;20180;-50
2022/08/19 05:38:47;;;;;;;357.13;211.90;;;;;;;;;;5008346;28;20307;-50
2022/08/19 05:41:13;;;;;;;352.48;208.48;;;;;;;;;;5006086;28;20217;-50
2022/08/19 05:43:39;;;;;;;363.10;214.18;;;;;;;;;;5007392;28;20716;-50
2022/08/19 05:46:06;;;;;;;339.85;199.85;;;;;;;;;;5008120;28;20248;-50
2022/08/19 05:48:32;;;;;;;365.30;216.90;;;;;;;;;;5007291;28;20696;-50
2022/08/19 05:50:59;;;;;;;374.88;220.93;;;;;;;;;;5006859;28;20165;-50
2022/08/19 05:53:25;;;;;;;363.83;227.63;;;;;;;;;;5007235;28;20660;-50
2022/08/19 05:55:51;;;;;;;337.00;206.60;;;;;;;;;;5007946;28;20277;-49
2022/08/19 05:58:17;;;;;;;371.85;229.73;;;;;;;;;;5007730;28;20217;-49
2022/08/19 06:00:44;;;;;;;379.73;239.70;;;;;;;;;;5007721;28;20688;-49
2022/08/19 06:03:10;;;;;;;366.77;218.77;;;;;;;;;;5008236;28;20197;-49
2022/08/19 06:05:36;;;;;;;360.85;214.57;;;;;;;;;;5007981;28;20224;-50
2022/08/19 06:08:02;;;;;;;380.73;227.52;;;;;;;;;;5004924;28;20270;-49
2022/08/19 06:10:29;;;;;;;384.73;234.27;;;;;;;;;;5003214;28;20243;-49
2022/08/19 06:12:55;;;;;;;392.08;240.77;;;;;;;;;;5004341;28;20290;-49
2022/08/19 06:15:25;;;;;;;417.20;262.23;;;;;;;;;;5003081;28;20192;-49
2022/08/19 06:17:51;;;;;;;381.52;242.27;;;;;;;;;;5001489;28;20188;-49
2022/08/19 06:20:17;;;;;;;382.00;236.05;;;;;;;;;;5004992;28;20564;-48
2022/08/19 06:22:45;;;;;;;368.60;224.70;;;;;;;;;;5003597;28;20212;-48
2022/08/19 06:25:12;;;;;;;373.02;229.23;;;;;;;;;;5004844;28;20243;-48
2022/08/19 06:27:39;;;;;;;365.25;222.57;;;;;;;;;;5004256;28;20252;-49
2022/08/19 06:30:05;;;;;;;386.83;232.15;;;;;;;;;;5004425;28;20545;-46
2022/08/19 06:32:31;;;;;;;376.85;228.65;;;;;;;;;;5003298;28;20242;-46
2022/08/19 06:34:57;;;;;;;366.08;218.07;;;;;;;;;;5004306;28;20300;-47
2022/08/19 06:37:23;;;;;;;381.20;235.75;;;;;;;;;;5003192;28;20303;-48
2022/08/19 06:39:49;;;;;;;397.05;240.30;;;;;;;;;;5002940;28;20213;-48
2022/08/19 06:42:18;;;;;;;368.27;224.43;;;;;;;;;;5003277;28;20295;-49
2022/08/19 06:44:44;;;;;;;389.00;236.23;;;;;;;;;;5002499;28;20292;-49
2022/08/19 06:47:12;;;;;;;426.15;264.15;;;;;;;;;;4997830;28;20216;-49
2022/08/19 06:49:38;;;;;;;461.63;282.23;;;;;;;;;;4977326;28;20603;-49
2022/08/19 06:52:04;;;;;;;440.80;262.60;;;;;;;;;;4973829;28;20217;-49
2022/08/19 06:54:30;;;;;;;527.10;315.25;;;;;;;;;;4978190;28;20205;-49
2022/08/19 06:56:57;;;;;;;419.45;249.23;;;;;;;;;;4983839;28;20748;-49
2022/08/19 06:59:27;;;;;;;439.30;268.80;;;;;;;;;;4978311;28;20589;-49
2022/08/19 07:01:55;;;;;;;403.75;252.27;;;;;;;;;;4987160;28;20811;-49
2022/08/19 07:04:23;;;;;;;498.92;296.63;;;;;;;;;;4976658;28;20600;-50
2022/08/19 07:06:49;;;;;;;406.20;247.02;;;;;;;;;;4983100;28;20239;-50
2022/08/19 07:09:16;;;;;;;428.13;257.23;;;;;;;;;;4986732;28;20209;-50
2022/08/19 07:11:46;;;;;;;445.88;259.42;;;;;;;;;;4982255;28;20979;-50
2022/08/19 07:14:13;;;;;;;487.05;274.98;;;;;;;;;;4961601;28;20351;-50
2022/08/19 07:16:39;;;;;;;640.63;341.63;;;;;;;;;;4970967;28;23643;-49
2022/08/19 07:19:06;;;;;;;457.70;270.13;;;;;;;;;;4979987;28;20220;-50
2022/08/19 07:21:32;;;;;;;422.25;265.65;;;;;;;;;;4959859;28;20211;-50
2022/08/19 07:23:59;;;;;;;425.48;274.60;;;;;;;;;;4984000;28;20307;-49
2022/08/19 07:26:28;;;;;;;431.50;273.13;;;;;;;;;;4979721;28;20290;-50
2022/08/19 07:28:54;;;;;;;453.83;281.33;;;;;;;;;;4978253;28;20224;-49
2022/08/19 07:31:22;;;;;;;442.98;277.60;;;;;;;;;;4968293;28;20220;-49
2022/08/19 07:33:49;;;;;;;462.63;279.50;;;;;;;;;;4971600;28;20389;-47
2022/08/19 07:36:16;;;;;;;508.85;318.02;;;;;;;;;;4977552;28;20198;-47
2022/08/19 07:38:43;;;;;;;417.40;244.68;;;;;;;;;;4977315;28;20262;-47
2022/08/19 07:41:10;;;;;;;417.17;253.65;;;;;;;;;;4993976;28;20220;-49
2022/08/19 07:43:37;;;;;;;381.13;245.50;;;;;;;;;;5006346;28;20282;-49
2022/08/19 07:46:03;;;;;;;395.05;255.60;;;;;;;;;;5005316;28;20208;-48
2022/08/19 07:48:28;;;;;;;409.88;269.15;;;;;;;;;;5005997;28;20197;-49
2022/08/19 07:50:56;;;;;;;406.25;266.67;;;;;;;;;;5005820;28;20173;-49
2022/08/19 07:53:22;;;;;;;379.58;244.32;;;;;;;;;;5006611;28;20285;-48
2022/08/19 07:55:48;;;;;;;400.13;259.80;;;;;;;;;;5025425;28;20255;-48
2022/08/19 07:58:16;;;;;;;396.83;263.67;;;;;;;;;;5026353;28;20231;-48
2022/08/19 08:00:43;;;;;;;367.98;245.98;;;;;;;;;;5026381;28;20208;-49
2022/08/19 08:03:09;;;;;;;390.75;266.90;;;;;;;;;;5011723;28;20197;-49
2022/08/19 08:11:05;;;;;;;367.60;241.73;;;;;;;;;;5005636;28;20304;-49
2022/08/19 08:13:34;;;;;;;373.38;246.30;;;;;;;;;;5005988;28;20292;-49
2022/08/19 08:16:01;;;;;;;411.15;271.42;;;;;;;;;;5005396;28;20620;-49
2022/08/19 08:18:27;;;;;;;385.02;257.13;;;;;;;;;;5006179;28;20177;-49
2022/08/19 08:20:53;;;;;;;399.83;265.83;;;;;;;;;;5006222;28;20173;-49
2022/08/19 08:23:22;;;;;;;421.88;269.33;;;;;;;;;;5021333;23;20233;-50
2022/08/19 08:25:48;;;;;;;403.52;254.45;;;;;;;;;;5004904;28;20764;-50
2022/08/19 08:28:14;;;;;;;410.70;253.30;;;;;;;;;;5008928;28;20209;-50
2022/08/19 08:30:43;;;;;;;475.88;280.92;;;;;;;;;;5008015;28;20209;-50
2022/08/19 08:33:09;;;;;;;398.90;245.60;;;;;;;;;;5007146;28;20291;-50
2022/08/19 08:35:34;;;;;;;413.00;251.60;;;;;;;;;;5008449;28;20303;-50
2022/08/19 08:38:03;;;;;;;392.05;240.00;;;;;;;;;;5008249;28;20216;-50
2022/08/19 08:40:34;;;;;;;394.00;241.23;;;;;;;;;;5007947;28;20695;-49
2022/08/19 08:43:02;;;;;;;414.98;257.10;;;;;;;;;;5008173;28;20335;-50
2022/08/19 08:45:29;;;;;;;416.13;261.13;;;;;;;;;;5008116;28;20231;-50
2022/08/19 08:47:57;;;;;;;405.40;250.50;;;;;;;;;;5008522;28;20695;-50
2022/08/19 08:50:29;;;;;;;403.27;254.00;;;;;;;;;;5007899;28;20564;-50
2022/08/19 08:52:57;;;;;;;392.38;252.93;;;;;;;;;;5008163;28;20224;-50
2022/08/19 08:55:27;;;;;;;432.08;269.50;;;;;;;;;;5007822;28;20231;-50
2022/08/19 08:58:15;;;;;;;389.88;261.38;;;;;;;;;;5008092;28;20232;-50
2022/08/19 09:00:45;;;;;;;408.17;256.63;;;;;;;;;;5007765;28;20212;-53
2022/08/19 09:03:16;;;;;;;428.98;273.48;;;;;;;;;;5008293;28;20696;-50
2022/08/19 09:05:49;;;;;;;455.63;296.08;;;;;;;;;;5006968;28;20216;-50
2022/08/19 09:08:33;;;;;;;439.92;276.30;;;;;;;;;;5006703;28;20243;-50
2022/08/19 09:10:59;;;;;;;437.73;287.45;;;;;;;;;;5007298;28;20294;-50
2022/08/19 09:13:31;;;;;;;409.35;282.33;;;;;;;;;;5007511;28;20677;-50
2022/08/19 09:16:01;;;;;;;411.88;274.30;;;;;;;;;;5007794;28;20735;-50
2022/08/19 09:18:38;;;;;;;413.23;272.63;;;;;;;;;;5007555;28;20266;-50
2022/08/19 09:21:04;;;;;;;398.75;264.40;;;;;;;;;;5008284;28;20165;-50
2022/08/19 09:23:30;;;;;;;407.65;276.67;;;;;;;;;;5006343;28;20271;-50
2022/08/19 09:25:56;;;;;;;407.70;284.73;;;;;;;;;;5007630;28;20318;-50
2022/08/19 09:28:22;;;;;;;404.98;277.85;;;;;;;;;;5006232;28;20235;-50
2022/08/19 09:30:48;;;;;;;411.58;282.63;;;;;;;;;;5006690;28;20212;-50
2022/08/19 09:33:15;;;;;;;417.05;295.23;;;;;;;;;;5007699;28;20207;-50
2022/08/19 09:35:41;;;;;;;402.75;291.25;;;;;;;;;;5006858;28;20685;-50
2022/08/19 09:38:06;;;;;;;416.10;277.25;;;;;;;;;;5006705;28;20212;-50
2022/08/19 09:40:32;;;;;;;432.15;287.55;;;;;;;;;;5004817;28;20208;-50
2022/08/19 09:43:02;;;;;;;415.25;277.48;;;;;;;;;;5005984;28;20216;-50
2022/08/19 09:45:29;;;;;;;381.92;265.85;;;;;;;;;;5006638;28;20227;-51
2022/08/19 09:47:54;;;;;;;408.27;277.30;;;;;;;;;;5007611;28;20169;-50
2022/08/19 09:50:21;;;;;;;404.98;274.30;;;;;;;;;;5006505;28;20592;-50
2022/08/19 09:52:48;;;;;;;419.80;292.30;;;;;;;;;;5006552;28;20479;-50
2022/08/19 09:55:15;;;;;;;407.63;290.33;;;;;;;;;;5006747;28;20632;-50
2022/08/19 09:57:41;;;;;;;415.92;296.95;;;;;;;;;;5006923;28;20212;-50
2022/08/19 10:00:09;;;;;;;393.50;286.80;;;;;;;;;;5006990;28;20681;-51
2022/08/19 10:02:35;;;;;;;399.10;295.88;;;;;;;;;;5007191;28;20331;-50
2022/08/19 10:07:46;;;;;;;390.40;284.85;;;;;;;;;;5007032;28;20753;-53
2022/08/19 10:10:12;;;;;;;400.50;293.27;;;;;;;;;;5006769;28;20229;-53
2022/08/19 10:12:38;;;;;;;417.63;305.85;;;;;;;;;;5006484;28;20203;-53
2022/08/19 10:15:05;;;;;;;411.98;300.77;;;;;;;;;;5006075;28;20883;-53
2022/08/19 10:17:33;;;;;;;388.02;279.95;;;;;;;;;;5006497;28;20216;-53
2022/08/19 10:19:59;;;;;;;387.20;271.95;;;;;;;;;;5006797;28;20573;-53
2022/08/19 10:22:25;;;;;;;368.52;278.20;;;;;;;;;;5007140;28;20715;-53
2022/08/19 10:24:52;;;;;;;392.42;275.42;;;;;;;;;;5006265;28;20290;-53
2022/08/19 10:27:18;;;;;;;387.52;285.23;;;;;;;;;;5007607;28;20184;-53
2022/08/19 10:29:44;;;;;;;379.60;280.63;;;;;;;;;;5006633;28;20588;-53
2022/08/19 10:32:10;;;;;;;397.02;289.48;;;;;;;;;;5007292;28;20219;-53
2022/08/19 10:34:37;;;;;;;408.83;292.98;;;;;;;;;;5008873;28;20231;-53
2022/08/19 10:37:05;;;;;;;405.98;285.30;;;;;;;;;;5010665;28;20631;-53
2022/08/19 10:39:32;;;;;;;397.83;274.05;;;;;;;;;;5010324;28;20212;-53
2022/08/19 10:41:58;;;;;;;363.70;259.00;;;;;;;;;;5010760;28;20185;-52
2022/08/19 10:44:24;;;;;;;400.17;278.38;;;;;;;;;;5010393;28;20613;-50
2022/08/19 10:46:51;;;;;;;402.70;288.58;;;;;;;;;;5009638;28;20278;-50
2022/08/19 10:49:18;;;;;;;378.70;280.90;;;;;;;;;;5010107;28;20235;-53
2022/08/19 10:57:15;;;;;;;395.38;282.95;;;;;;;;;;5010571;28;20215;-53
2022/08/19 10:59:41;;;;;;;374.35;270.50;;;;;;;;;;5009172;28;20223;-53
2022/08/19 11:02:09;;;;;;;386.77;274.63;;;;;;;;;;5010120;28;20303;-52
2022/08/19 11:04:35;;;;;;;399.63;268.83;;;;;;;;;;5009571;28;20219;-51
2022/08/19 11:07:01;;;;;;;390.30;270.38;;;;;;;;;;5009669;28;20208;-48
2022/08/19 11:09:27;;;;;;;382.67;261.10;;;;;;;;;;5009675;28;20201;-47
2022/08/19 11:11:54;;;;;;;387.48;263.92;;;;;;;;;;5010106;28;20170;-48
2022/08/19 11:14:21;;;;;;;446.15;287.15;;;;;;;;;;5008443;28;20299;-47
2022/08/19 11:16:48;;;;;;;402.85;266.08;;;;;;;;;;5007969;28;20503;-47
2022/08/19 11:19:15;;;;;;;417.85;277.35;;;;;;;;;;5009805;28;20212;-47
2022/08/19 11:21:43;;;;;;;413.17;274.13;;;;;;;;;;5009082;28;20484;-47
2022/08/19 11:24:11;;;;;;;401.90;274.73;;;;;;;;;;5009628;28;20572;-47
2022/08/19 11:26:38;;;;;;;423.67;287.50;;;;;;;;;;5008960;28;20205;-47
2022/08/19 11:29:05;;;;;;;406.20;292.67;;;;;;;;;;5009111;28;20244;-47
2022/08/19 11:31:33;;;;;;;391.88;285.60;;;;;;;;;;5009412;28;20212;-47
2022/08/19 11:34:01;;;;;;;410.98;294.08;;;;;;;;;;5008782;28;20220;-47
2022/08/19 11:36:27;;;;;;;387.00;278.55;;;;;;;;;;5009558;28;20261;-47
2022/08/19 11:38:53;;;;;;;428.15;290.25;;;;;;;;;;5009355;28;20223;-47
2022/08/19 11:41:21;;;;;;;404.80;278.30;;;;;;;;;;5009465;28;20220;-50
2022/08/19 11:43:47;;;;;;;408.23;284.58;;;;;;;;;;5009542;28;20696;-48
2022/08/19 11:46:14;;;;;;;407.27;277.00;;;;;;;;;;5008282;28;20601;-48
2022/08/19 11:48:40;;;;;;;409.08;280.70;;;;;;;;;;5009357;28;20224;-48
2022/08/19 11:51:09;;;;;;;403.38;278.60;;;;;;;;;;5009561;28;20187;-48
2022/08/19 11:53:35;;;;;;;386.55;274.13;;;;;;;;;;5009092;28;20709;-48
2022/08/19 11:56:01;;;;;;;413.40;296.15;;;;;;;;;;5009094;28;20337;-48
2022/08/19 11:58:27;;;;;;;396.60;278.27;;;;;;;;;;5008869;28;20494;-48
2022/08/19 12:00:53;;;;;;;403.55;289.20;;;;;;;;;;4996720;28;20222;-48
2022/08/19 12:03:19;;;;;;;379.30;290.85;;;;;;;;;;4989578;28;20430;-48
2022/08/19 12:05:45;;;;;;;420.58;296.92;;;;;;;;;;4990345;28;20474;-48
2022/08/19 12:08:12;;;;;;;414.95;303.67;;;;;;;;;;4988468;28;20629;-48
2022/08/19 12:10:39;;;;;;;405.58;291.75;;;;;;;;;;4989372;28;20229;-48
2022/08/19 12:13:06;;;;;;;451.13;322.67;;;;;;;;;;4967863;28;20665;-51
2022/08/19 12:15:36;;;;;;;479.42;336.33;;;;;;;;;;4962138;28;20186;-51
2022/08/19 12:18:01;;;;;;;511.30;372.13;;;;;;;;;;4957037;28;20731;-51
2022/08/19 12:20:27;;;;;;;548.15;366.13;;;;;;;;;;4953576;28;20808;-51
2022/08/19 12:22:54;;;;;;;481.48;336.30;;;;;;;;;;4961438;28;20217;-51
2022/08/19 12:25:20;;;;;;;424.27;313.73;;;;;;;;;;4966243;28;20225;-51
2022/08/19 12:27:46;;;;;;;448.83;335.67;;;;;;;;;;4963976;28;20222;-51
2022/08/19 12:30:13;;;;;;;497.80;351.63;;;;;;;;;;4950760;28;20194;-51
2022/08/19 12:32:39;;;;;;;495.27;346.70;;;;;;;;;;4969621;28;20214;-51
2022/08/19 12:35:07;;;;;;;442.50;319.50;;;;;;;;;;4975336;28;20224;-51
2022/08/19 12:37:34;;;;;;;475.23;331.50;;;;;;;;;;4972068;28;20213;-50
2022/08/19 12:40:00;;;;;;;467.60;327.58;;;;;;;;;;4971796;28;20271;-50
2022/08/19 12:42:25;;;;;;;453.67;330.33;;;;;;;;;;4965077;28;20193;-51
2022/08/19 12:44:52;;;;;;;454.77;334.60;;;;;;;;;;4971848;28;20217;-51
2022/08/19 12:47:18;;;;;;;434.90;312.50;;;;;;;;;;4972556;28;20214;-51
2022/08/19 12:49:45;;;;;;;490.20;328.48;;;;;;;;;;4967047;28;20755;-51
2022/08/19 12:52:15;;;;;;;411.83;300.15;;;;;;;;;;4974124;28;20279;-51
2022/08/19 12:54:42;;;;;;;478.38;330.92;;;;;;;;;;4988534;28;20225;-52
2022/08/19 12:57:08;;;;;;;437.10;294.33;;;;;;;;;;4991594;28;20268;-53
2022/08/19 12:59:36;;;;;;;530.83;336.20;;;;;;;;;;4985832;28;20224;-51
2022/08/19 13:02:03;;;;;;;427.35;290.02;;;;;;;;;;4995029;28;20729;-50
2022/08/19 13:04:29;;;;;;;451.63;305.10;;;;;;;;;;4988954;28;20296;-51
2022/08/19 13:06:55;;;;;;;488.98;332.08;;;;;;;;;;4986144;28;20606;-50
2022/08/19 13:09:21;;;;;;;452.80;319.95;;;;;;;;;;4982513;28;20228;-51
2022/08/19 13:11:47;;;;;;;427.27;306.30;;;;;;;;;;4989888;28;20716;-51
2022/08/19 13:14:13;;;;;;;468.00;329.17;;;;;;;;;;4983558;28;20228;-51
2022/08/19 13:16:40;;;;;;;488.23;322.55;;;;;;;;;;4993100;28;20220;-51
2022/08/19 13:19:07;;;;;;;608.78;369.65;;;;;;;;;;4977543;28;20241;-51
2022/08/19 13:21:33;;;;;;;466.13;300.77;;;;;;;;;;4986805;28;20193;-51
2022/08/19 13:23:59;;;;;;;459.55;307.95;;;;;;;;;;4988401;28;20562;-52
2022/08/19 13:26:25;;;;;;;497.30;322.02;;;;;;;;;;4983163;28;20224;-51
2022/08/19 13:34:27;;;;;;;457.42;306.70;;;;;;;;;;4989696;28;20351;-52
2022/08/19 13:36:53;;;;;;;449.80;305.58;;;;;;;;;;4986489;28;20303;-52
2022/08/19 13:39:20;;;;;;;498.90;326.65;;;;;;;;;;4990946;28;20188;-52
2022/08/19 13:41:47;;;;;;;491.60;312.73;;;;;;;;;;4979369;28;20248;-52
2022/08/19 13:44:14;;;;;;;413.20;292.38;;;;;;;;;;4983400;28;20333;-52
2022/08/19 13:46:40;;;;;;;519.85;330.38;;;;;;;;;;4982057;28;20224;-51
2022/08/19 13:49:06;;;;;;;516.60;320.45;;;;;;;;;;4984041;28;21048;-52
2022/08/19 13:51:32;;;;;;;471.83;301.70;;;;;;;;;;4985943;28;20669;-52
2022/08/19 13:53:58;;;;;;;420.58;282.20;;;;;;;;;;4986179;28;20208;-51
2022/08/19 13:56:24;;;;;;;451.00;298.13;;;;;;;;;;4990728;28;20264;-51
2022/08/19 13:58:50;;;;;;;446.98;280.33;;;;;;;;;;4992247;28;20600;-52
2022/08/19 14:01:19;;;;;;;418.45;274.10;;;;;;;;;;4991186;28;20222;-52
2022/08/19 14:03:45;;;;;;;463.77;300.48;;;;;;;;;;4986622;28;20224;-52
2022/08/19 14:06:11;;;;;;;458.05;306.05;;;;;;;;;;4987830;28;20621;-52
2022/08/19 14:08:39;;;;;;;478.55;308.08;;;;;;;;;;4991380;28;20220;-52
2022/08/19 14:11:05;;;;;;;451.70;289.77;;;;;;;;;;4986288;28;20205;-52
2022/08/19 14:13:33;;;;;;;407.17;275.33;;;;;;;;;;4976192;28;20875;-52
2022/08/19 14:15:59;;;;;;;458.38;289.40;;;;;;;;;;4962890;28;20251;-52